createdAt,value
2018-09-30T00:00:46.238Z,66.21
2018-09-30T00:03:13.699Z,66.41
2018-09-30T00:05:41.182Z,66.51
2018-09-30T00:08:08.660Z,66.83
2018-09-30T00:10:36.077Z,66.96
2018-09-30T00:13:03.569Z,66.71
2018-09-30T00:15:31.009Z,66.60
2018-09-30T00:17:58.430Z,66.51
2018-09-30T00:20:25.910Z,66.62
2018-09-30T00:22:53.367Z,66.55
2018-09-30T00:28:18.896Z,65.96
2018-09-30T00:30:46.369Z,65.84
2018-09-30T00:33:13.860Z,66.00
2018-09-30T00:35:42.110Z,66.21
2018-09-30T00:38:09.581Z,66.30
2018-09-30T00:40:37.019Z,66.32
2018-09-30T00:43:04.664Z,66.42
2018-09-30T00:45:32.126Z,66.54
2018-09-30T00:47:59.567Z,66.56
2018-09-30T00:50:27.104Z,66.43
2018-09-30T00:52:54.562Z,66.36
2018-09-30T00:55:22.017Z,66.21
2018-09-30T00:57:49.475Z,66.98
2018-09-30T01:00:16.932Z,67.27
2018-09-30T01:02:44.402Z,67.24
2018-09-30T01:05:11.892Z,67.27
2018-09-30T01:07:39.339Z,67.53
2018-09-30T01:10:06.797Z,67.34
2018-09-30T01:12:34.234Z,67.21
2018-09-30T01:15:01.711Z,66.99
2018-09-30T01:17:29.126Z,66.99
2018-09-30T01:19:56.549Z,66.90
2018-09-30T01:22:24.088Z,67.40
2018-09-30T01:24:51.490Z,67.47
2018-09-30T01:27:18.921Z,67.66
2018-09-30T01:29:46.347Z,67.87
2018-09-30T01:32:13.841Z,67.62
2018-09-30T01:34:41.304Z,67.74
2018-09-30T01:37:08.709Z,67.71
2018-09-30T01:39:36.157Z,67.57
2018-09-30T01:42:03.668Z,67.58
2018-09-30T01:44:31.104Z,67.66
2018-09-30T01:46:59.055Z,67.92
2018-09-30T01:49:26.482Z,67.93
2018-09-30T01:51:53.930Z,67.70
2018-09-30T01:54:21.735Z,67.74
2018-09-30T01:56:49.171Z,67.93
2018-09-30T01:59:16.594Z,67.87
2018-09-30T02:01:44.046Z,67.73
2018-09-30T02:04:11.655Z,67.89
2018-09-30T02:06:39.142Z,68.12
2018-09-30T02:09:06.581Z,68.32
2018-09-30T02:11:34.180Z,68.45
2018-09-30T02:14:01.611Z,68.37
2018-09-30T02:16:29.077Z,68.29
2018-09-30T02:18:56.610Z,68.33
2018-09-30T02:21:24.104Z,68.37
2018-09-30T02:23:52.282Z,68.66
2018-09-30T02:26:19.783Z,69.29
2018-09-30T02:28:47.200Z,69.54
2018-09-30T02:31:14.637Z,69.57
2018-09-30T02:33:42.132Z,69.60
2018-09-30T02:36:09.606Z,69.65
2018-09-30T02:38:37.082Z,69.78
2018-09-30T02:41:04.514Z,69.88
2018-09-30T02:43:31.924Z,69.98
2018-09-30T02:45:59.355Z,69.88
2018-09-30T02:48:26.844Z,69.67
2018-09-30T02:50:54.280Z,69.57
2018-09-30T02:53:21.694Z,69.43
2018-09-30T02:55:49.211Z,69.36
2018-09-30T02:58:16.678Z,69.48
2018-09-30T03:00:44.195Z,69.50
2018-09-30T03:03:11.671Z,69.41
2018-09-30T03:05:39.183Z,69.49
2018-09-30T03:11:00.614Z,68.85
2018-09-30T03:13:28.059Z,69.04
2018-09-30T03:15:55.577Z,69.16
2018-09-30T03:18:23.014Z,69.28
2018-09-30T03:20:50.458Z,69.39
2018-09-30T03:23:17.915Z,69.47
2018-09-30T03:25:45.392Z,69.61
2018-09-30T03:28:13.012Z,69.34
2018-09-30T03:30:40.636Z,69.44
2018-09-30T03:33:08.059Z,69.31
2018-09-30T03:35:35.549Z,69.13
2018-09-30T03:38:03.044Z,69.05
2018-09-30T03:40:30.493Z,68.94
2018-09-30T03:42:57.901Z,69.02
2018-09-30T03:45:25.367Z,69.14
2018-09-30T03:47:52.838Z,69.24
2018-09-30T03:50:20.464Z,69.45
2018-09-30T03:52:47.899Z,69.51
2018-09-30T03:55:15.345Z,69.55
2018-09-30T03:57:42.816Z,69.58
2018-09-30T04:00:10.288Z,69.78
2018-09-30T04:02:37.836Z,69.89
2018-09-30T04:05:05.231Z,69.90
2018-09-30T04:07:32.654Z,69.93
2018-09-30T04:10:00.220Z,69.79
2018-09-30T04:12:27.629Z,69.63
2018-09-30T04:14:55.035Z,69.60
2018-09-30T04:17:22.597Z,69.95
2018-09-30T04:19:50.008Z,70.25
2018-09-30T04:22:17.450Z,70.32
2018-09-30T04:24:44.934Z,70.60
2018-09-30T04:27:12.448Z,70.82
2018-09-30T04:29:39.872Z,70.80
2018-09-30T04:32:07.355Z,70.59
2018-09-30T04:34:34.816Z,70.48
2018-09-30T04:37:02.283Z,70.39
2018-09-30T04:39:29.929Z,70.33
2018-09-30T04:41:57.410Z,70.31
2018-09-30T04:44:24.812Z,70.34
2018-09-30T04:46:52.265Z,70.32
2018-09-30T04:49:19.758Z,70.17
2018-09-30T04:51:47.195Z,70.33
2018-09-30T04:54:14.836Z,70.45
2018-09-30T04:56:42.263Z,70.35
2018-09-30T04:59:09.681Z,70.45
2018-09-30T05:01:37.257Z,70.55
2018-09-30T05:04:04.817Z,70.58
2018-09-30T05:06:32.322Z,70.74
2018-09-30T05:08:59.816Z,71.03
2018-09-30T05:11:27.315Z,71.36
2018-09-30T05:13:54.701Z,71.47
2018-09-30T05:16:22.177Z,71.50
2018-09-30T05:18:49.637Z,71.62
2018-09-30T05:21:17.088Z,71.49
2018-09-30T05:23:44.577Z,71.33
2018-09-30T05:26:12.084Z,71.38
2018-09-30T05:28:39.641Z,71.55
2018-09-30T05:31:07.130Z,71.73
2018-09-30T05:33:34.562Z,72.01
2018-09-30T05:36:02.038Z,71.98
2018-09-30T05:38:29.589Z,71.83
2018-09-30T05:40:57.128Z,71.68
2018-09-30T05:43:24.617Z,71.57
2018-09-30T05:45:52.117Z,71.53
2018-09-30T05:48:19.585Z,71.43
2018-09-30T05:50:47.048Z,71.28
2018-09-30T05:53:14.502Z,71.04
2018-09-30T05:55:41.948Z,70.63
2018-09-30T05:58:09.469Z,70.19
2018-09-30T06:00:36.842Z,69.67
2018-09-30T06:03:04.312Z,68.14
2018-09-30T06:05:31.738Z,67.12
2018-09-30T06:07:59.157Z,66.05
2018-09-30T06:10:26.672Z,65.04
2018-09-30T06:12:54.103Z,63.98
2018-09-30T06:15:21.567Z,62.97
2018-09-30T06:17:49.109Z,62.30
2018-09-30T06:20:16.635Z,61.69
2018-09-30T06:22:44.113Z,60.82
2018-09-30T06:25:11.604Z,59.75
2018-09-30T06:27:39.059Z,58.63
2018-09-30T06:30:06.462Z,57.67
2018-09-30T06:32:33.909Z,56.55
2018-09-30T06:35:01.369Z,55.85
2018-09-30T06:37:28.971Z,55.39
2018-09-30T06:39:56.416Z,54.46
2018-09-30T06:42:23.846Z,53.41
2018-09-30T06:44:51.274Z,52.17
2018-09-30T06:47:18.796Z,51.04
2018-09-30T06:49:46.271Z,50.31
2018-09-30T06:52:13.742Z,49.76
2018-09-30T06:54:41.211Z,49.07
2018-09-30T06:57:08.669Z,48.44
2018-09-30T06:59:35.678Z,48.06
2018-09-30T07:02:02.707Z,47.19
2018-09-30T07:04:29.721Z,46.57
2018-09-30T07:06:56.695Z,46.54
2018-09-30T07:09:23.713Z,46.36
2018-09-30T07:11:50.736Z,46.35
2018-09-30T07:14:18.435Z,46.22
2018-09-30T07:19:20.749Z,45.39
2018-09-30T07:21:47.751Z,44.54
2018-09-30T07:24:16.479Z,44.06
2018-09-30T07:26:43.517Z,44.23
2018-09-30T07:29:10.499Z,44.45
2018-09-30T07:31:37.479Z,44.64
2018-09-30T07:34:04.527Z,44.39
2018-09-30T07:36:31.535Z,43.91
2018-09-30T07:38:58.530Z,43.49
2018-09-30T07:41:25.561Z,42.30
2018-09-30T07:43:52.582Z,41.78
2018-09-30T07:46:19.705Z,41.14
2018-09-30T07:48:46.697Z,41.27
2018-09-30T07:51:13.724Z,41.44
2018-09-30T07:53:40.711Z,40.92
2018-09-30T07:56:07.745Z,40.34
2018-09-30T07:58:34.822Z,40.08
2018-09-30T08:01:02.040Z,40.49
2018-09-30T08:03:29.050Z,40.18
2018-09-30T08:05:56.064Z,40.07
2018-09-30T08:08:23.081Z,39.47
2018-09-30T08:10:50.093Z,38.82
2018-09-30T08:13:17.549Z,38.32
2018-09-30T08:15:44.556Z,37.06
2018-09-30T08:18:11.580Z,36.08
2018-09-30T08:20:39.088Z,35.67
2018-09-30T08:23:07.062Z,35.07
2018-09-30T08:25:34.523Z,35.28
2018-09-30T08:28:01.977Z,34.46
2018-09-30T08:30:29.196Z,33.78
2018-09-30T08:32:56.481Z,33.84
2018-09-30T08:35:23.460Z,33.76
2018-09-30T08:37:50.491Z,33.39
2018-09-30T08:40:17.434Z,33.24
2018-09-30T08:42:44.426Z,33.06
2018-09-30T08:45:11.562Z,34.34
2018-09-30T08:47:38.684Z,34.00
2018-09-30T08:50:05.787Z,33.77
2018-09-30T08:52:33.506Z,33.23
2018-09-30T08:55:00.506Z,32.97
2018-09-30T08:57:27.505Z,32.72
2018-09-30T08:59:54.511Z,32.40
2018-09-30T09:02:21.945Z,32.08
2018-09-30T09:04:48.927Z,31.84
2018-09-30T09:07:15.879Z,32.24
2018-09-30T09:09:42.869Z,32.34
2018-09-30T09:12:10.365Z,32.79
2018-09-30T09:14:37.901Z,33.06
2018-09-30T09:17:05.697Z,33.32
2018-09-30T09:19:33.126Z,34.50
2018-09-30T09:22:01.085Z,34.86
2018-09-30T09:24:28.958Z,35.04
2018-09-30T09:26:56.210Z,36.25
2018-09-30T09:29:23.341Z,36.81
2018-09-30T09:31:50.591Z,37.73
2018-09-30T09:34:17.750Z,38.55
2018-09-30T09:36:46.395Z,39.38
2018-09-30T09:39:13.956Z,38.75
2018-09-30T09:41:41.736Z,38.58
2018-09-30T09:44:10.156Z,39.12
2018-09-30T09:46:37.436Z,39.36
2018-09-30T09:49:04.969Z,39.56
2018-09-30T09:51:32.440Z,38.44
2018-09-30T09:54:00.125Z,38.19
2018-09-30T09:56:27.665Z,37.46
2018-09-30T09:58:56.858Z,37.38
2018-09-30T10:01:24.322Z,36.54
2018-09-30T10:03:51.776Z,35.99
2018-09-30T10:06:19.436Z,36.09
2018-09-30T10:08:47.126Z,35.97
2018-09-30T10:11:15.021Z,35.89
2018-09-30T10:13:42.561Z,35.70
2018-09-30T10:16:11.059Z,35.60
2018-09-30T10:18:38.561Z,35.49
2018-09-30T10:21:06.045Z,35.25
2018-09-30T10:23:33.693Z,34.64
2018-09-30T10:26:01.870Z,34.27
2018-09-30T10:28:29.414Z,34.79
2018-09-30T10:30:57.957Z,35.34
2018-09-30T10:33:26.485Z,36.03
2018-09-30T10:35:54.213Z,35.01
2018-09-30T10:38:21.974Z,35.65
2018-09-30T10:40:49.533Z,35.44
2018-09-30T10:43:19.112Z,35.46
2018-09-30T10:45:46.612Z,35.26
2018-09-30T10:48:14.663Z,34.84
2018-09-30T10:50:42.110Z,36.09
2018-09-30T10:53:09.974Z,36.47
2018-09-30T10:55:38.703Z,36.74
2018-09-30T10:58:06.831Z,36.12
2018-09-30T11:00:36.974Z,35.64
2018-09-30T11:03:04.703Z,34.93
2018-09-30T11:05:32.633Z,34.62
2018-09-30T11:08:00.709Z,34.66
2018-09-30T11:10:30.675Z,34.63
2018-09-30T11:12:58.204Z,34.00
2018-09-30T11:15:26.748Z,33.79
2018-09-30T11:17:54.966Z,32.83
2018-09-30T11:20:22.664Z,32.35
2018-09-30T11:22:51.496Z,32.02
2018-09-30T11:25:20.178Z,31.79
2018-09-30T11:27:48.174Z,31.70
2018-09-30T11:30:16.065Z,31.29
2018-09-30T11:32:43.751Z,31.33
2018-09-30T11:35:11.671Z,31.14
2018-09-30T11:37:41.525Z,30.50
2018-09-30T11:40:08.950Z,30.07
2018-09-30T11:42:36.713Z,30.47
2018-09-30T11:45:04.606Z,30.28
2018-09-30T11:47:32.171Z,30.19
2018-09-30T11:50:00.326Z,30.20
2018-09-30T11:52:28.177Z,30.04
2018-09-30T11:54:55.807Z,29.65
2018-09-30T11:57:24.421Z,29.42
2018-09-30T11:59:52.418Z,29.50
2018-09-30T12:02:20.776Z,29.79
2018-09-30T12:04:48.734Z,30.34
2018-09-30T12:07:18.044Z,30.13
2018-09-30T12:09:46.821Z,30.40
2018-09-30T12:12:16.135Z,30.47
2018-09-30T12:14:43.486Z,30.01
2018-09-30T12:17:11.761Z,29.86
2018-09-30T12:19:38.825Z,31.32
2018-09-30T12:22:05.804Z,32.49
2018-09-30T12:24:33.257Z,33.41
2018-09-30T12:27:00.851Z,34.01
2018-09-30T12:29:28.323Z,34.76
2018-09-30T12:31:57.767Z,34.92
2018-09-30T12:34:26.965Z,34.83
2018-09-30T12:36:54.677Z,34.42
2018-09-30T12:39:22.360Z,34.32
2018-09-30T12:41:49.855Z,33.98
2018-09-30T12:44:17.436Z,34.10
2018-09-30T12:46:44.979Z,34.27
2018-09-30T12:49:11.955Z,34.57
2018-09-30T12:51:39.158Z,34.70
2018-09-30T12:54:06.183Z,35.40
2018-09-30T12:56:33.167Z,35.75
2018-09-30T12:59:00.657Z,35.78
2018-09-30T13:01:28.099Z,34.96
2018-09-30T13:03:55.712Z,34.51
2018-09-30T13:06:23.143Z,34.04
2018-09-30T13:08:50.612Z,34.81
2018-09-30T13:11:18.074Z,35.45
2018-09-30T13:13:45.859Z,35.41
2018-09-30T13:16:12.886Z,36.18
2018-09-30T13:18:40.050Z,36.62
2018-09-30T13:21:07.358Z,36.93
2018-09-30T13:23:34.461Z,37.10
2018-09-30T13:26:01.483Z,37.44
2018-09-30T13:28:28.649Z,37.72
2018-09-30T13:30:55.663Z,37.97
2018-09-30T13:33:22.669Z,38.29
2018-09-30T13:35:50.088Z,38.63
2018-09-30T13:38:17.557Z,38.58
2018-09-30T13:40:45.165Z,38.79
2018-09-30T13:43:12.521Z,39.12
2018-09-30T13:45:39.916Z,39.29
2018-09-30T13:48:07.490Z,39.34
2018-09-30T13:50:34.934Z,39.26
2018-09-30T13:53:02.400Z,39.39
2018-09-30T13:55:30.741Z,39.38
2018-09-30T13:57:57.765Z,38.97
2018-09-30T14:00:24.745Z,39.04
2018-09-30T14:02:51.801Z,39.24
2018-09-30T14:05:18.980Z,39.14
2018-09-30T14:07:46.009Z,39.47
2018-09-30T14:10:13.141Z,39.64
2018-09-30T14:12:40.123Z,39.99
2018-09-30T14:15:07.176Z,40.91
2018-09-30T14:17:34.748Z,42.17
2018-09-30T14:20:02.227Z,42.54
2018-09-30T14:22:29.701Z,44.04
2018-09-30T14:24:57.188Z,47.34
2018-09-30T14:27:24.793Z,51.54
2018-09-30T14:29:52.062Z,54.25
2018-09-30T14:32:19.556Z,56.01
2018-09-30T14:34:47.083Z,56.86
2018-09-30T14:37:14.580Z,57.76
2018-09-30T14:39:42.620Z,58.37
2018-09-30T14:42:10.020Z,58.72
2018-09-30T14:44:37.467Z,58.01
2018-09-30T14:47:04.928Z,58.68
2018-09-30T14:49:32.432Z,59.00
2018-09-30T14:51:59.891Z,59.43
2018-09-30T14:54:27.419Z,60.18
2018-09-30T14:56:54.847Z,60.81
2018-09-30T14:59:22.288Z,61.49
2018-09-30T15:01:49.739Z,61.16
2018-09-30T15:04:17.298Z,61.48
2018-09-30T15:06:44.762Z,61.41
2018-09-30T15:09:12.204Z,62.15
2018-09-30T15:11:39.630Z,62.36
2018-09-30T15:14:07.188Z,62.25
2018-09-30T15:16:34.694Z,63.10
2018-09-30T15:19:02.146Z,64.16
2018-09-30T15:21:29.615Z,64.54
2018-09-30T15:23:57.484Z,64.78
2018-09-30T15:26:24.923Z,65.31
2018-09-30T15:28:52.408Z,66.75
2018-09-30T15:31:20.654Z,67.96
2018-09-30T15:33:48.218Z,68.20
2018-09-30T15:36:15.636Z,68.75
2018-09-30T15:38:43.125Z,68.95
2018-09-30T15:41:10.578Z,69.15
2018-09-30T15:43:38.105Z,69.60
2018-09-30T15:46:05.664Z,70.22
2018-09-30T15:48:33.199Z,70.73
2018-09-30T15:51:00.693Z,70.21
2018-09-30T15:53:28.605Z,70.70
2018-09-30T15:55:56.131Z,70.25
2018-09-30T15:58:23.607Z,70.73
2018-09-30T16:00:51.150Z,71.18
2018-09-30T16:03:18.842Z,72.00
2018-09-30T16:05:46.428Z,71.69
2018-09-30T16:08:14.017Z,72.46
2018-09-30T16:10:41.822Z,73.56
2018-09-30T16:13:09.378Z,73.41
2018-09-30T16:15:37.554Z,73.06
2018-09-30T16:18:05.552Z,73.51
2018-09-30T16:20:34.250Z,73.67
2018-09-30T16:23:01.713Z,73.42
2018-09-30T16:25:29.134Z,73.72
2018-09-30T16:27:56.663Z,73.37
2018-09-30T16:30:24.380Z,73.62
2018-09-30T16:32:51.915Z,74.51
2018-09-30T16:35:20.522Z,73.81
2018-09-30T16:37:48.068Z,74.17
2018-09-30T16:40:15.471Z,74.64
2018-09-30T16:42:43.017Z,74.84
2018-09-30T16:45:10.499Z,75.05
2018-09-30T16:47:37.943Z,75.28
2018-09-30T16:50:05.470Z,74.63
2018-09-30T16:52:32.914Z,72.83
2018-09-30T16:55:00.380Z,69.03
2018-09-30T16:57:27.872Z,66.76
2018-09-30T16:59:55.428Z,67.02
2018-09-30T17:02:23.044Z,69.21
2018-09-30T17:04:50.500Z,71.03
2018-09-30T17:07:17.914Z,72.19
2018-09-30T17:09:45.345Z,73.56
2018-09-30T17:12:12.755Z,73.45
2018-09-30T17:14:40.164Z,73.51
2018-09-30T17:17:07.616Z,73.83
2018-09-30T17:19:35.728Z,74.12
2018-09-30T17:22:03.218Z,74.85
2018-09-30T17:24:30.789Z,74.52
2018-09-30T17:26:58.259Z,74.35
2018-09-30T17:29:25.656Z,74.42
2018-09-30T17:31:53.181Z,75.09
2018-09-30T17:34:20.624Z,74.89
2018-09-30T17:36:48.089Z,75.05
2018-09-30T17:39:15.585Z,75.46
2018-09-30T17:41:43.005Z,74.17
2018-09-30T17:44:10.432Z,73.52
2018-09-30T17:46:37.903Z,73.47
2018-09-30T17:49:05.366Z,73.31
2018-09-30T17:51:32.905Z,73.00
2018-09-30T17:54:00.849Z,73.46
2018-09-30T17:56:28.281Z,73.78
2018-09-30T17:58:55.711Z,73.89
2018-09-30T18:01:23.556Z,73.72
2018-09-30T18:03:50.982Z,74.29
2018-09-30T18:06:18.414Z,74.72
2018-09-30T18:08:45.833Z,74.88
2018-09-30T18:11:13.976Z,75.10
2018-09-30T18:13:41.449Z,75.30
2018-09-30T18:16:09.004Z,75.24
2018-09-30T18:18:36.484Z,75.71
2018-09-30T18:21:03.929Z,75.82
2018-09-30T18:23:33.460Z,75.81
2018-09-30T18:26:01.069Z,75.45
2018-09-30T18:28:28.618Z,75.30
2018-09-30T18:30:56.162Z,75.09
2018-09-30T18:33:23.649Z,74.54
2018-09-30T18:35:51.108Z,74.13
2018-09-30T18:38:18.564Z,73.69
2018-09-30T18:40:46.033Z,73.40
2018-09-30T18:43:13.712Z,73.46
2018-09-30T18:45:41.170Z,72.88
2018-09-30T18:48:08.657Z,72.52
2018-09-30T18:50:36.052Z,72.32
2018-09-30T18:53:03.457Z,72.05
2018-09-30T18:55:30.965Z,71.60
2018-09-30T18:57:58.424Z,71.33
2018-09-30T19:00:25.890Z,71.17
2018-09-30T19:02:53.319Z,71.12
2018-09-30T19:05:20.798Z,70.77
2018-09-30T19:07:48.215Z,71.36
2018-09-30T19:10:15.662Z,71.51
2018-09-30T19:12:43.158Z,72.24
2018-09-30T19:15:10.618Z,72.60
2018-09-30T19:17:38.196Z,72.14
2018-09-30T19:20:05.683Z,72.73
2018-09-30T19:22:33.151Z,72.93
2018-09-30T19:25:01.220Z,72.91
2018-09-30T19:27:28.732Z,73.12
2018-09-30T19:29:56.403Z,72.70
2018-09-30T19:32:25.614Z,72.11
2018-09-30T19:34:56.924Z,72.38
2018-09-30T19:37:24.562Z,72.34
2018-09-30T19:39:52.147Z,72.13
2018-09-30T19:42:20.882Z,72.79
2018-09-30T19:44:48.605Z,73.77
2018-09-30T19:47:17.225Z,73.73
2018-09-30T19:49:45.078Z,74.24
2018-09-30T19:52:12.851Z,74.37
2018-09-30T19:54:40.299Z,74.50
2018-09-30T19:57:07.815Z,74.24
2018-09-30T19:59:35.358Z,73.87
2018-09-30T20:02:02.975Z,74.25
2018-09-30T20:04:30.426Z,74.36
2018-09-30T20:06:57.919Z,75.25
2018-09-30T20:09:25.402Z,75.38
2018-09-30T20:11:53.031Z,75.59
2018-09-30T20:14:20.531Z,75.62
2018-09-30T20:16:47.993Z,75.29
2018-09-30T20:19:15.481Z,75.49
2018-09-30T20:21:42.909Z,75.62
2018-09-30T20:24:10.409Z,75.95
2018-09-30T20:26:37.890Z,76.28
2018-09-30T20:29:05.337Z,76.55
2018-09-30T20:31:32.799Z,76.22
2018-09-30T20:34:00.437Z,75.22
2018-09-30T20:36:27.917Z,75.25
2018-09-30T20:38:55.474Z,75.29
2018-09-30T20:41:22.957Z,75.25
2018-09-30T20:43:50.424Z,75.66
2018-09-30T20:46:17.853Z,75.63
2018-09-30T20:48:45.280Z,75.79
2018-09-30T20:51:12.668Z,75.69
2018-09-30T20:53:40.106Z,75.47
2018-09-30T20:56:07.535Z,75.30
2018-09-30T20:58:34.979Z,75.41
2018-09-30T21:01:02.460Z,76.00
2018-09-30T21:03:29.937Z,76.90
2018-09-30T21:05:57.363Z,77.15
2018-09-30T21:08:25.615Z,77.55
2018-09-30T21:10:53.046Z,77.94
2018-09-30T21:13:20.495Z,78.21
2018-09-30T21:15:48.061Z,78.18
2018-09-30T21:18:15.563Z,78.21
2018-09-30T21:20:43.027Z,78.06
2018-09-30T21:23:10.445Z,77.98
2018-09-30T21:25:37.929Z,77.91
2018-09-30T21:28:05.408Z,77.77
2018-09-30T21:30:32.859Z,77.64
2018-09-30T21:33:00.251Z,77.49
2018-09-30T21:35:27.683Z,77.06
2018-09-30T21:37:55.119Z,77.28
2018-09-30T21:40:22.521Z,77.36
2018-09-30T21:42:49.983Z,77.04
2018-09-30T21:45:17.469Z,76.99
2018-09-30T21:47:44.917Z,77.32
2018-09-30T21:50:12.364Z,76.43
2018-09-30T21:52:40.145Z,75.98
2018-09-30T21:55:07.661Z,76.55
2018-09-30T21:57:34.998Z,77.48
2018-09-30T22:00:02.503Z,77.82
2018-09-30T22:02:29.942Z,78.25
2018-09-30T22:04:57.399Z,77.97
2018-09-30T22:07:24.884Z,77.79
2018-09-30T22:09:52.296Z,77.50
2018-09-30T22:12:20.345Z,77.37
2018-09-30T22:14:47.789Z,77.56
2018-09-30T22:17:15.226Z,77.54
2018-09-30T22:19:42.626Z,77.62
2018-09-30T22:22:10.095Z,77.56
2018-09-30T22:24:37.504Z,77.31
2018-09-30T22:27:05.112Z,77.08
2018-09-30T22:29:32.499Z,76.90
2018-09-30T22:31:59.957Z,77.13
2018-09-30T22:34:27.396Z,76.34
2018-09-30T22:36:54.842Z,75.69
2018-09-30T22:39:22.333Z,75.16
2018-09-30T22:41:49.814Z,75.45
2018-09-30T22:44:17.320Z,75.92
2018-09-30T22:46:44.856Z,76.02
2018-09-30T22:49:12.242Z,76.26
2018-09-30T22:51:39.759Z,76.77
2018-09-30T22:54:07.218Z,76.94
2018-09-30T22:56:34.967Z,76.89
2018-09-30T22:59:02.424Z,76.45
2018-09-30T23:01:29.825Z,76.32
2018-09-30T23:03:57.277Z,76.01
2018-09-30T23:06:24.909Z,76.08
2018-09-30T23:08:52.401Z,76.38
2018-09-30T23:11:19.843Z,76.53
2018-09-30T23:13:47.377Z,76.69
2018-09-30T23:16:14.818Z,77.12
2018-09-30T23:18:42.277Z,76.78
2018-09-30T23:21:09.695Z,76.67
2018-09-30T23:23:37.102Z,76.56
2018-09-30T23:26:04.552Z,76.68
2018-09-30T23:28:32.012Z,76.71
2018-09-30T23:30:59.463Z,76.83
2018-09-30T23:33:26.919Z,76.69
2018-09-30T23:35:54.377Z,76.42
2018-09-30T23:38:21.809Z,76.26
2018-09-30T23:40:49.235Z,76.33
2018-09-30T23:43:16.638Z,76.25
2018-09-30T23:45:44.067Z,76.50
2018-09-30T23:48:11.538Z,77.07
2018-09-30T23:50:39.012Z,77.56
2018-09-30T23:53:06.506Z,77.66
2018-09-30T23:55:33.951Z,78.12
2018-09-30T23:58:01.466Z,78.46
